createdAt,value
2019-03-08T00:04:02.645Z,5.42
2019-03-08T00:06:30.627Z,5.60
2019-03-08T00:08:59.117Z,5.68
2019-03-08T00:11:39.453Z,5.69
2019-03-08T00:14:07.824Z,5.77
2019-03-08T00:16:36.070Z,5.81
2019-03-08T00:19:04.883Z,5.81
2019-03-08T00:21:32.539Z,5.79
2019-03-08T00:24:01.220Z,5.77
2019-03-08T00:26:30.085Z,5.83
2019-03-08T00:28:58.824Z,5.95
2019-03-08T00:31:27.383Z,5.93
2019-03-08T00:33:56.099Z,5.96
2019-03-08T00:36:24.157Z,5.93
2019-03-08T00:38:52.464Z,5.90
2019-03-08T00:41:20.784Z,5.85
2019-03-08T00:43:49.595Z,5.84
2019-03-08T00:46:17.980Z,5.84
2019-03-08T00:49:07.962Z,5.87
2019-03-08T00:51:43.145Z,5.88
2019-03-08T00:54:11.771Z,5.81
2019-03-08T00:56:40.545Z,5.79
2019-03-08T00:59:09.257Z,5.78
2019-03-08T01:01:37.456Z,5.77
2019-03-08T01:04:06.026Z,5.77
2019-03-08T01:06:34.410Z,5.73
2019-03-08T01:11:42.530Z,5.67
2019-03-08T01:14:10.420Z,5.65
2019-03-08T01:16:37.623Z,5.58
2019-03-08T01:19:05.742Z,5.58
2019-03-08T01:21:34.131Z,5.58
2019-03-08T01:24:02.416Z,5.53
2019-03-08T01:26:30.900Z,5.49
2019-03-08T01:28:58.893Z,5.49
2019-03-08T01:31:26.854Z,5.43
2019-03-08T01:33:55.584Z,5.47
2019-03-08T01:36:24.129Z,5.42
2019-03-08T01:38:52.337Z,5.41
2019-03-08T01:41:20.707Z,5.42
2019-03-08T01:43:48.574Z,5.39
2019-03-08T01:46:17.091Z,5.38
2019-03-08T01:48:45.776Z,5.31
2019-03-08T01:56:49.570Z,5.28
2019-03-08T01:59:18.089Z,5.30
2019-03-08T02:01:46.859Z,5.31
2019-03-08T02:04:15.145Z,5.33
2019-03-08T02:06:43.766Z,5.27
2019-03-08T02:09:12.415Z,5.23
2019-03-08T02:11:41.013Z,5.19
2019-03-08T02:14:10.425Z,5.15
2019-03-08T02:16:39.000Z,5.13
2019-03-08T02:19:07.290Z,5.12
2019-03-08T02:21:35.516Z,5.10
2019-03-08T02:24:04.177Z,5.09
2019-03-08T02:26:32.465Z,5.07
2019-03-08T02:29:00.738Z,5.06
2019-03-08T02:32:09.325Z,5.03
2019-03-08T02:34:37.576Z,5.05
2019-03-08T02:37:05.799Z,5.05
2019-03-08T02:39:34.287Z,5.05
2019-03-08T02:42:02.447Z,5.05
2019-03-08T02:44:30.322Z,5.01
2019-03-08T02:46:58.214Z,4.99
2019-03-08T02:49:26.239Z,5.03
2019-03-08T02:51:54.559Z,5.03
2019-03-08T02:54:22.353Z,4.99
2019-03-08T02:56:51.024Z,4.92
2019-03-08T02:59:19.410Z,4.99
2019-03-08T03:01:47.267Z,4.97
2019-03-08T03:04:15.556Z,5.02
2019-03-08T03:06:44.151Z,4.96
2019-03-08T03:09:12.980Z,4.91
2019-03-08T03:11:41.286Z,4.87
2019-03-08T03:14:09.632Z,4.88
2019-03-08T03:16:37.984Z,4.88
2019-03-08T03:19:05.972Z,4.85
2019-03-08T03:21:35.026Z,4.84
2019-03-08T03:24:02.767Z,4.78
2019-03-08T03:26:31.040Z,4.81
2019-03-08T03:28:59.420Z,4.83
2019-03-08T03:31:27.712Z,4.84
2019-03-08T03:33:56.286Z,4.88
2019-03-08T03:36:24.859Z,4.90
2019-03-08T03:38:53.374Z,4.82
2019-03-08T03:41:21.633Z,4.76
2019-03-08T03:43:50.227Z,4.72
2019-03-08T03:46:18.769Z,4.68
2019-03-08T03:48:47.436Z,4.63
2019-03-08T03:51:15.641Z,4.64
2019-03-08T03:53:43.590Z,4.56
2019-03-08T03:56:12.231Z,4.54
2019-03-08T03:58:40.402Z,4.46
2019-03-08T04:01:28.153Z,4.43
2019-03-08T04:03:56.438Z,4.39
2019-03-08T04:06:25.138Z,4.39
2019-03-08T04:08:53.108Z,4.37
2019-03-08T04:11:21.484Z,4.37
2019-03-08T04:13:49.707Z,4.36
2019-03-08T04:16:17.956Z,4.27
2019-03-08T04:18:45.847Z,4.27
2019-03-08T04:21:14.195Z,4.19
2019-03-08T04:23:42.375Z,4.14
2019-03-08T04:26:10.777Z,4.09
2019-03-08T04:28:38.721Z,4.12
2019-03-08T04:31:06.611Z,4.06
2019-03-08T04:33:34.960Z,4.07
2019-03-08T04:36:03.008Z,4.04
2019-03-08T04:38:31.271Z,3.94
2019-03-08T04:40:59.837Z,3.96
2019-03-08T04:43:27.820Z,3.99
2019-03-08T04:45:56.501Z,3.98
2019-03-08T04:48:24.818Z,4.03
2019-03-08T04:50:52.935Z,4.08
2019-03-08T04:53:20.910Z,4.09
2019-03-08T04:55:48.797Z,4.14
2019-03-08T04:58:17.107Z,4.16
2019-03-08T05:00:45.801Z,4.15
2019-03-08T05:03:13.777Z,4.23
2019-03-08T05:05:42.046Z,4.24
2019-03-08T05:08:10.644Z,4.28
2019-03-08T05:10:38.622Z,4.34
2019-03-08T05:13:06.880Z,4.34
2019-03-08T05:15:34.869Z,4.32
2019-03-08T05:18:03.123Z,4.29
2019-03-08T05:20:31.501Z,4.31
2019-03-08T05:22:59.854Z,4.35
2019-03-08T05:25:28.560Z,4.37
2019-03-08T05:27:56.710Z,4.33
2019-03-08T05:30:25.084Z,4.31
2019-03-08T05:32:53.355Z,4.29
2019-03-08T05:35:21.602Z,4.25
2019-03-08T05:37:50.115Z,4.23
2019-03-08T05:40:18.359Z,4.18
2019-03-08T05:42:47.015Z,4.11
2019-03-08T05:45:14.939Z,4.01
2019-03-08T05:47:43.141Z,4.02
2019-03-08T05:50:11.543Z,4.03
2019-03-08T05:52:40.336Z,4.02
2019-03-08T05:55:08.715Z,4.02
2019-03-08T05:57:36.992Z,3.99
2019-03-08T06:00:05.792Z,4.01
2019-03-08T06:02:34.118Z,4.09
2019-03-08T06:05:02.252Z,4.05
2019-03-08T06:07:30.542Z,4.04
2019-03-08T06:09:58.862Z,4.07
2019-03-08T06:12:32.613Z,4.11
2019-03-08T06:15:01.037Z,4.16
2019-03-08T06:17:29.760Z,4.18
2019-03-08T06:19:58.083Z,4.23
2019-03-08T06:22:25.964Z,4.29
2019-03-08T06:24:53.826Z,4.36
2019-03-08T06:27:22.195Z,4.43
2019-03-08T06:29:50.835Z,4.37
2019-03-08T06:32:19.300Z,4.42
2019-03-08T06:34:47.899Z,4.45
2019-03-08T06:37:16.443Z,4.44
2019-03-08T06:39:59.392Z,4.49
2019-03-08T06:42:33.312Z,4.45
2019-03-08T06:45:01.490Z,4.47
2019-03-08T06:47:30.176Z,4.45
2019-03-08T06:49:58.459Z,4.48
2019-03-08T06:52:26.326Z,4.53
2019-03-08T06:54:54.704Z,4.52
2019-03-08T06:57:22.900Z,4.54
2019-03-08T07:00:10.400Z,4.56
2019-03-08T07:02:38.594Z,4.62
2019-03-08T07:05:06.558Z,4.69
2019-03-08T07:07:35.216Z,4.67
2019-03-08T07:10:03.187Z,4.72
2019-03-08T07:12:31.598Z,4.80
2019-03-08T07:15:00.321Z,4.82
2019-03-08T07:17:28.482Z,4.75
2019-03-08T07:23:27.636Z,4.75
2019-03-08T07:26:16.200Z,4.81
2019-03-08T07:29:03.978Z,4.78
2019-03-08T07:31:37.066Z,4.59
2019-03-08T07:34:25.097Z,4.54
2019-03-08T07:37:12.503Z,4.49
2019-03-08T07:40:19.032Z,4.53
2019-03-08T07:42:53.051Z,4.60
2019-03-08T07:45:39.347Z,4.73
2019-03-08T07:48:26.491Z,4.86
2019-03-08T07:51:33.263Z,4.93
2019-03-08T07:54:21.041Z,4.95
2019-03-08T07:57:08.737Z,4.93
2019-03-08T08:00:08.062Z,4.79
2019-03-08T08:03:03.338Z,4.81
2019-03-08T08:05:58.049Z,4.83
2019-03-08T08:08:51.603Z,4.95
2019-03-08T08:11:44.200Z,5.05
2019-03-08T08:14:39.359Z,5.32
2019-03-08T08:17:27.477Z,5.61
2019-03-08T08:20:26.696Z,5.78
2019-03-08T08:23:13.694Z,5.84
2019-03-08T08:26:01.391Z,6.11
2019-03-08T08:28:50.103Z,6.42
2019-03-08T08:31:45.022Z,6.73
2019-03-08T08:34:32.723Z,6.98
2019-03-08T08:37:20.570Z,6.91
2019-03-08T08:40:20.056Z,6.81
2019-03-08T08:43:07.817Z,6.78
2019-03-08T08:45:55.544Z,6.62
2019-03-08T08:48:42.700Z,6.42
2019-03-08T08:51:30.191Z,6.27
2019-03-08T08:54:17.694Z,6.17
2019-03-08T08:57:05.508Z,6.15
2019-03-08T09:00:04.907Z,6.05
2019-03-08T09:02:43.103Z,6.11
2019-03-08T09:05:19.217Z,6.21
2019-03-08T09:07:56.344Z,6.26
2019-03-08T09:10:44.292Z,6.24
2019-03-08T09:13:32.692Z,6.21
2019-03-08T09:16:20.555Z,6.08
2019-03-08T09:19:08.785Z,6.13
2019-03-08T09:21:56.521Z,6.11
2019-03-08T09:24:44.553Z,6.08
2019-03-08T09:27:32.236Z,5.94
2019-03-08T09:30:20.082Z,5.86
2019-03-08T09:33:22.249Z,5.99
2019-03-08T09:36:18.491Z,6.19
2019-03-08T09:39:05.942Z,6.30
2019-03-08T09:41:53.902Z,6.47
2019-03-08T09:44:41.782Z,6.58
2019-03-08T09:47:29.666Z,6.94
2019-03-08T09:50:17.074Z,7.06
2019-03-08T09:53:04.908Z,6.96
2019-03-08T09:55:52.697Z,6.90
2019-03-08T09:58:29.532Z,6.72
2019-03-08T10:01:16.920Z,6.61
2019-03-08T10:04:15.012Z,6.79
2019-03-08T10:06:51.888Z,7.19
2019-03-08T10:09:39.320Z,7.87
2019-03-08T10:12:27.140Z,7.61
2019-03-08T10:15:14.370Z,7.22
2019-03-08T10:18:02.145Z,6.91
2019-03-08T10:20:49.589Z,6.51
2019-03-08T10:23:37.296Z,6.18
2019-03-08T10:26:25.351Z,6.22
2019-03-08T10:29:09.302Z,6.19
2019-03-08T10:31:57.214Z,6.27
2019-03-08T10:34:44.688Z,6.50
2019-03-08T10:37:32.587Z,6.47
2019-03-08T10:40:19.952Z,6.50
2019-03-08T10:43:07.708Z,6.68
2019-03-08T10:45:55.257Z,7.13
2019-03-08T10:48:42.808Z,7.24
2019-03-08T10:51:30.318Z,6.93
2019-03-08T10:54:09.282Z,6.70
2019-03-08T10:56:56.762Z,6.45
2019-03-08T10:59:44.728Z,6.36
2019-03-08T11:02:32.172Z,6.30
2019-03-08T11:05:15.288Z,6.59
2019-03-08T11:08:02.837Z,6.99
2019-03-08T11:10:50.779Z,7.48
2019-03-08T11:13:43.223Z,7.78
2019-03-08T11:16:34.168Z,8.02
2019-03-08T11:19:21.628Z,8.10
2019-03-08T11:22:09.094Z,8.60
2019-03-08T11:24:43.012Z,10.08
2019-03-08T11:27:30.039Z,10.72
2019-03-08T11:30:18.077Z,11.53
2019-03-08T11:32:55.056Z,11.76
2019-03-08T11:35:42.892Z,11.28
2019-03-08T11:38:30.721Z,11.16
2019-03-08T11:41:37.542Z,10.71
2019-03-08T11:44:25.309Z,10.52
2019-03-08T11:47:13.175Z,9.74
2019-03-08T11:50:01.006Z,9.65
2019-03-08T11:52:48.891Z,9.20
2019-03-08T11:55:36.611Z,8.57
2019-03-08T11:58:24.083Z,8.17
2019-03-08T12:01:24.254Z,8.06
2019-03-08T12:04:12.156Z,7.91
2019-03-08T12:06:46.497Z,8.04
2019-03-08T12:09:34.033Z,7.97
2019-03-08T12:12:13.607Z,7.99
2019-03-08T12:15:01.423Z,7.96
2019-03-08T12:17:49.410Z,7.98
2019-03-08T12:20:37.380Z,7.71
2019-03-08T12:23:25.278Z,7.58
2019-03-08T12:26:13.179Z,7.40
2019-03-08T12:29:00.613Z,7.42
2019-03-08T12:31:48.054Z,7.34
2019-03-08T12:34:44.662Z,7.45
2019-03-08T12:37:32.608Z,7.39
2019-03-08T12:40:39.383Z,7.39
2019-03-08T12:43:23.703Z,7.84
2019-03-08T12:46:11.649Z,10.27
2019-03-08T12:48:59.673Z,10.94
2019-03-08T12:51:47.503Z,10.09
2019-03-08T12:54:35.240Z,9.71
2019-03-08T12:57:11.282Z,9.45
2019-03-08T12:59:58.773Z,9.19
2019-03-08T13:02:46.728Z,8.71
2019-03-08T13:05:26.549Z,8.26
2019-03-08T13:08:14.343Z,8.18
2019-03-08T13:10:54.681Z,8.22
2019-03-08T13:13:23.027Z,8.62
2019-03-08T13:15:52.204Z,8.60
2019-03-08T13:18:20.928Z,8.47
2019-03-08T13:20:48.903Z,8.73
2019-03-08T13:23:16.572Z,10.14
2019-03-08T13:25:45.271Z,10.52
2019-03-08T13:28:13.912Z,10.52
2019-03-08T13:33:22.205Z,9.03
2019-03-08T13:35:50.603Z,9.38
2019-03-08T13:38:19.367Z,10.78
2019-03-08T13:40:47.868Z,11.05
2019-03-08T13:43:15.094Z,10.33
2019-03-08T13:45:43.759Z,9.80
2019-03-08T13:48:12.384Z,9.73
2019-03-08T13:50:40.218Z,9.71
2019-03-08T13:53:08.566Z,9.75
2019-03-08T13:55:37.118Z,11.22
2019-03-08T13:58:05.566Z,10.69
2019-03-08T14:00:34.001Z,11.50
2019-03-08T14:03:22.219Z,11.92
2019-03-08T14:05:50.282Z,12.44
2019-03-08T14:08:18.613Z,11.15
2019-03-08T14:10:46.636Z,10.05
2019-03-08T14:13:15.968Z,9.41
2019-03-08T14:15:44.235Z,9.37
2019-03-08T14:18:13.464Z,9.57
2019-03-08T14:20:41.882Z,9.29
2019-03-08T14:23:10.626Z,9.30
2019-03-08T14:25:39.297Z,9.30
2019-03-08T14:28:07.657Z,9.28
2019-03-08T14:33:22.084Z,9.54
2019-03-08T14:35:50.680Z,8.98
2019-03-08T14:38:19.488Z,9.29
2019-03-08T14:41:06.960Z,10.05
2019-03-08T14:43:54.746Z,10.47
2019-03-08T14:46:42.139Z,10.98
2019-03-08T14:49:22.903Z,12.67
2019-03-08T14:51:52.560Z,13.92
2019-03-08T14:54:20.929Z,15.21
2019-03-08T14:56:48.898Z,16.29
2019-03-08T14:59:17.172Z,15.90
2019-03-08T15:01:45.552Z,16.49
2019-03-08T15:04:14.403Z,16.17
2019-03-08T15:06:42.738Z,16.34
2019-03-08T15:12:16.552Z,15.70
2019-03-08T15:14:51.383Z,16.56
2019-03-08T15:17:19.732Z,16.92
2019-03-08T15:19:48.460Z,16.89
2019-03-08T15:22:17.269Z,15.25
2019-03-08T15:24:45.781Z,14.00
2019-03-08T15:27:14.619Z,13.90
2019-03-08T15:29:42.904Z,14.40
2019-03-08T15:32:11.699Z,14.07
2019-03-08T15:34:39.337Z,14.30
2019-03-08T15:37:07.834Z,14.79
2019-03-08T15:39:35.933Z,15.29
2019-03-08T15:42:12.343Z,16.19
2019-03-08T15:44:40.918Z,16.38
2019-03-08T15:47:13.402Z,16.53
2019-03-08T15:49:58.017Z,17.14
2019-03-08T15:52:26.707Z,17.64
2019-03-08T15:54:55.494Z,16.34
2019-03-08T15:57:24.297Z,16.16
2019-03-08T15:59:52.914Z,15.29
2019-03-08T16:02:21.027Z,14.90
2019-03-08T16:04:50.282Z,14.10
2019-03-08T16:07:27.239Z,14.20
2019-03-08T16:10:02.290Z,12.97
2019-03-08T16:12:30.162Z,13.26
2019-03-08T16:15:06.913Z,12.03
2019-03-08T16:17:36.672Z,10.59
2019-03-08T16:20:06.209Z,11.62
2019-03-08T16:22:34.871Z,13.03
2019-03-08T16:25:06.553Z,12.39
2019-03-08T16:27:33.979Z,10.88
2019-03-08T16:30:08.484Z,10.11
2019-03-08T16:32:57.409Z,9.29
2019-03-08T16:38:26.136Z,8.00
2019-03-08T16:41:12.941Z,7.72
2019-03-08T16:44:00.832Z,7.40
2019-03-08T16:46:48.757Z,7.20
2019-03-08T16:49:36.127Z,7.06
2019-03-08T16:52:23.568Z,6.83
2019-03-08T16:55:10.959Z,6.64
2019-03-08T16:57:58.827Z,6.52
2019-03-08T17:00:46.343Z,6.52
2019-03-08T17:03:33.445Z,6.34
2019-03-08T17:06:26.537Z,6.35
2019-03-08T17:09:16.374Z,6.38
2019-03-08T17:12:03.970Z,6.54
2019-03-08T17:14:43.410Z,6.66
2019-03-08T17:17:30.949Z,6.57
2019-03-08T17:20:10.474Z,6.51
2019-03-08T17:22:53.898Z,6.59
2019-03-08T17:25:41.269Z,6.46
2019-03-08T17:28:18.303Z,6.47
2019-03-08T17:30:52.772Z,6.33
2019-03-08T17:33:40.555Z,6.25
2019-03-08T17:36:15.969Z,6.23
2019-03-08T17:39:15.451Z,6.13
2019-03-08T17:42:02.429Z,5.99
2019-03-08T17:44:50.232Z,5.87
2019-03-08T17:47:37.652Z,5.76
2019-03-08T17:50:33.253Z,5.68
2019-03-08T17:53:10.106Z,5.63
2019-03-08T17:55:57.469Z,5.52
2019-03-08T17:58:44.914Z,5.54
2019-03-08T18:01:34.247Z,5.53
2019-03-08T18:04:22.178Z,5.57
2019-03-08T18:07:09.299Z,5.46
2019-03-08T18:10:08.488Z,5.26
2019-03-08T18:12:56.293Z,5.07
2019-03-08T18:15:33.162Z,4.89
2019-03-08T18:18:20.887Z,4.77
2019-03-08T18:21:24.313Z,4.59
2019-03-08T18:24:11.785Z,4.54
2019-03-08T18:26:59.024Z,4.41
2019-03-08T18:29:58.579Z,4.37
2019-03-08T18:32:46.165Z,4.24
2019-03-08T18:35:33.529Z,4.15
2019-03-08T18:38:20.895Z,4.02
2019-03-08T18:41:18.664Z,4.03
2019-03-08T18:43:57.675Z,3.99
2019-03-08T18:46:45.498Z,4.15
2019-03-08T18:49:45.293Z,4.02
2019-03-08T18:52:33.248Z,3.84
2019-03-08T18:55:20.655Z,3.71
2019-03-08T18:58:07.727Z,3.61
2019-03-08T19:00:55.175Z,3.60
2019-03-08T19:03:42.559Z,3.51
2019-03-08T19:06:30.073Z,3.49
2019-03-08T19:09:12.998Z,3.50
2019-03-08T19:12:00.401Z,3.52
2019-03-08T19:14:48.157Z,3.45
2019-03-08T19:17:36.292Z,3.46
2019-03-08T19:20:23.925Z,3.49
2019-03-08T19:23:11.700Z,3.46
2019-03-08T19:25:59.539Z,3.45
2019-03-08T19:28:47.389Z,3.40
2019-03-08T19:31:34.839Z,3.29
2019-03-08T19:34:34.307Z,3.16
2019-03-08T19:37:10.660Z,3.06
2019-03-08T19:40:00.449Z,2.90
2019-03-08T19:42:54.264Z,2.79
2019-03-08T19:45:42.228Z,2.69
2019-03-08T19:48:30.072Z,2.64
2019-03-08T19:51:18.004Z,2.60
2019-03-08T19:54:05.230Z,2.63
2019-03-08T19:56:53.255Z,2.68
2019-03-08T19:59:41.159Z,2.70
2019-03-08T20:02:28.186Z,2.75
2019-03-08T20:05:15.918Z,2.83
2019-03-08T20:08:00.749Z,2.89
2019-03-08T20:10:40.316Z,2.93
2019-03-08T20:13:27.710Z,3.00
2019-03-08T20:16:14.867Z,3.11
2019-03-08T20:19:02.316Z,3.16
2019-03-08T20:21:50.185Z,3.21
2019-03-08T20:24:37.876Z,3.25
2019-03-08T20:27:25.719Z,3.34
2019-03-08T20:30:12.958Z,3.35
2019-03-08T20:33:00.899Z,3.44
2019-03-08T20:35:48.795Z,3.46
2019-03-08T20:38:36.351Z,3.46
2019-03-08T20:41:24.174Z,3.56
2019-03-08T20:44:12.082Z,3.47
2019-03-08T20:46:47.443Z,3.50
2019-03-08T20:49:15.447Z,3.28
2019-03-08T20:51:44.481Z,3.16
2019-03-08T20:54:12.142Z,3.21
2019-03-08T20:56:40.526Z,3.16
2019-03-08T20:59:09.060Z,3.15
2019-03-08T21:01:36.731Z,3.16
2019-03-08T21:04:05.182Z,3.18
2019-03-08T21:06:33.476Z,3.17
2019-03-08T21:09:01.867Z,3.34
2019-03-08T21:11:30.134Z,3.39
2019-03-08T21:13:58.545Z,3.45
2019-03-08T21:16:26.428Z,3.42
2019-03-08T21:18:53.955Z,3.35
2019-03-08T21:21:21.839Z,3.36
2019-03-08T21:23:50.212Z,3.33
2019-03-08T21:26:19.011Z,3.40
2019-03-08T21:28:47.695Z,3.34
2019-03-08T21:31:15.968Z,3.28
2019-03-08T21:33:44.257Z,3.28
2019-03-08T21:36:12.674Z,3.29
2019-03-08T21:38:41.039Z,3.42
2019-03-08T21:41:09.163Z,3.36
2019-03-08T21:43:37.449Z,3.33
2019-03-08T21:46:04.959Z,3.33
2019-03-08T21:48:33.544Z,3.33
2019-03-08T21:51:01.416Z,3.34
2019-03-08T21:53:29.299Z,3.35
2019-03-08T21:55:57.615Z,3.35
2019-03-08T21:58:25.654Z,3.36
2019-03-08T22:00:53.630Z,3.35
2019-03-08T22:03:21.829Z,3.53
2019-03-08T22:05:50.593Z,3.62
2019-03-08T22:08:19.179Z,3.64
2019-03-08T22:11:06.918Z,3.50
2019-03-08T22:13:35.224Z,3.44
2019-03-08T22:16:02.803Z,3.42
2019-03-08T22:18:31.195Z,3.55
2019-03-08T22:20:59.361Z,3.59
2019-03-08T22:23:27.369Z,3.71
2019-03-08T22:25:55.659Z,3.84
2019-03-08T22:28:24.174Z,3.79
2019-03-08T22:30:52.558Z,3.89
2019-03-08T22:33:21.092Z,3.82
2019-03-08T22:35:49.042Z,3.88
2019-03-08T22:38:17.392Z,3.89
2019-03-08T22:40:45.372Z,3.85
2019-03-08T22:43:13.915Z,4.02
2019-03-08T22:45:42.764Z,3.94
2019-03-08T22:48:10.796Z,3.99
2019-03-08T22:50:38.725Z,3.90
2019-03-08T22:53:06.982Z,3.86
2019-03-08T22:55:35.342Z,3.94
2019-03-08T22:58:03.975Z,3.93
2019-03-08T23:07:04.072Z,3.85
2019-03-08T23:09:45.058Z,3.68
2019-03-08T23:12:14.402Z,3.67
2019-03-08T23:14:43.320Z,3.75
2019-03-08T23:17:11.625Z,3.74
2019-03-08T23:19:59.204Z,3.67
2019-03-08T23:22:28.376Z,3.67
2019-03-08T23:25:37.251Z,3.71
2019-03-08T23:28:25.670Z,3.66
2019-03-08T23:31:26.095Z,3.53
2019-03-08T23:33:54.643Z,3.44
2019-03-08T23:36:23.347Z,3.39
2019-03-08T23:38:51.559Z,3.47
2019-03-08T23:41:20.519Z,3.45
2019-03-08T23:50:13.791Z,3.44
2019-03-08T23:52:42.193Z,3.32
2019-03-08T23:55:11.130Z,3.17
2019-03-08T23:57:39.735Z,3.04
